createdAt,value
2023-02-24T00:04:52.593Z,5.47
2023-02-24T00:09:56.761Z,4.78
2023-02-24T00:14:59.754Z,4.68
2023-02-24T00:20:02.766Z,4.20
2023-02-24T00:25:08.090Z,4.00
2023-02-24T00:30:12.229Z,3.70
2023-02-24T00:35:15.775Z,3.55
2023-02-24T00:40:23.436Z,3.90
2023-02-24T00:45:30.729Z,4.10
2023-02-24T00:50:33.921Z,3.70
2023-02-24T00:55:38.114Z,3.30
2023-02-24T01:00:43.353Z,3.20
2023-02-24T01:05:46.181Z,3.40
2023-02-24T01:11:18.968Z,3.00
2023-02-24T01:16:22.053Z,2.75
2023-02-24T01:21:24.918Z,3.15
2023-02-24T01:26:30.904Z,3.30
2023-02-24T01:31:33.839Z,2.63
2023-02-24T01:36:36.782Z,2.95
2023-02-24T01:41:44.497Z,2.63
2023-02-24T01:46:49.639Z,2.65
2023-02-24T01:51:55.689Z,2.70
2023-02-24T01:57:00.682Z,2.65
2023-02-24T02:02:07.013Z,2.67
2023-02-24T02:07:12.354Z,2.38
2023-02-24T02:12:17.155Z,2.50
2023-02-24T02:17:31.410Z,2.42
2023-02-24T02:23:06.674Z,2.40
2023-02-24T02:28:45.475Z,2.45
2023-02-24T02:34:22.763Z,2.35
2023-02-24T02:39:35.293Z,2.63
2023-02-24T02:44:41.307Z,2.55
2023-02-24T02:49:49.686Z,2.15
2023-02-24T02:54:57.716Z,2.33
2023-02-24T03:00:09.696Z,2.42
2023-02-24T03:05:21.329Z,2.13
2023-02-24T03:10:27.894Z,2.30
2023-02-24T03:15:33.639Z,2.25
2023-02-24T03:20:43.041Z,2.50
2023-02-24T03:25:53.272Z,2.10
2023-02-24T03:31:03.654Z,1.88
2023-02-24T03:36:08.127Z,2.13
2023-02-24T03:41:12.481Z,2.05
2023-02-24T03:46:16.992Z,2.25
2023-02-24T03:51:24.325Z,2.10
2023-02-24T03:56:35.555Z,1.95
2023-02-24T04:01:47.471Z,2.30
2023-02-24T04:06:56.428Z,1.95
2023-02-24T04:12:05.527Z,2.00
2023-02-24T04:17:13.374Z,1.80
2023-02-24T04:22:24.617Z,2.03
2023-02-24T04:27:29.202Z,1.95
2023-02-24T04:32:32.465Z,2.00
2023-02-24T04:37:39.672Z,2.30
2023-02-24T04:42:46.537Z,1.80
2023-02-24T04:47:51.230Z,1.98
2023-02-24T04:52:57.356Z,2.17
2023-02-24T04:58:01.039Z,1.80
2023-02-24T05:03:06.193Z,2.00
2023-02-24T05:08:11.819Z,1.80
2023-02-24T05:13:16.148Z,1.92
2023-02-24T05:18:20.401Z,1.80
2023-02-24T05:23:27.864Z,1.95
2023-02-24T05:28:31.912Z,2.10
2023-02-24T05:33:35.580Z,2.30
2023-02-24T05:38:39.884Z,2.15
2023-02-24T05:43:44.680Z,2.20
2023-02-24T05:48:52.110Z,2.13
2023-02-24T05:53:56.453Z,2.30
2023-02-24T05:59:03.103Z,2.83
2023-02-24T06:04:08.075Z,2.28
2023-02-24T06:09:14.041Z,2.38
2023-02-24T06:14:17.463Z,2.50
2023-02-24T06:19:20.671Z,2.53
2023-02-24T06:24:27.375Z,2.70
2023-02-24T06:29:31.473Z,2.28
2023-02-24T06:34:34.451Z,2.20
2023-02-24T06:39:38.640Z,2.65
2023-02-24T06:44:42.291Z,2.30
2023-02-24T06:49:45.142Z,2.10
2023-02-24T06:54:52.452Z,2.20
2023-02-24T06:59:56.115Z,2.15
2023-02-24T07:04:58.994Z,1.90
2023-02-24T07:10:03.186Z,1.98
2023-02-24T07:15:07.132Z,2.08
2023-02-24T07:20:25.091Z,2.40
2023-02-24T07:25:33.772Z,2.33
2023-02-24T07:30:37.122Z,2.38
2023-02-24T07:35:41.557Z,2.53
2023-02-24T07:40:46.947Z,3.17
2023-02-24T07:45:50.011Z,3.60
2023-02-24T07:50:53.000Z,3.13
2023-02-24T07:55:57.173Z,2.78
2023-02-24T08:01:08.526Z,3.35
2023-02-24T08:06:15.614Z,4.50
2023-02-24T08:11:24.986Z,3.97
2023-02-24T08:16:39.359Z,3.47
2023-02-24T08:21:47.263Z,3.83
2023-02-24T08:27:04.330Z,3.28
2023-02-24T08:32:09.419Z,3.58
2023-02-24T08:37:15.679Z,3.42
2023-02-24T08:42:20.119Z,2.97
2023-02-24T08:47:31.015Z,2.90
2023-02-24T08:52:35.574Z,3.35
2023-02-24T08:57:39.800Z,2.88
2023-02-24T09:02:42.638Z,2.72
2023-02-24T09:07:54.537Z,2.50
2023-02-24T09:12:58.878Z,2.60
2023-02-24T09:18:07.493Z,2.35
2023-02-24T09:23:20.132Z,2.72
2023-02-24T09:28:25.929Z,2.40
2023-02-24T09:33:38.826Z,2.40
2023-02-24T09:44:18.445Z,2.00
2023-02-24T09:49:24.932Z,2.30
2023-02-24T09:54:35.333Z,2.60
2023-02-24T10:00:01.106Z,2.17
2023-02-24T10:05:12.498Z,2.33
2023-02-24T10:10:20.584Z,2.05
2023-02-24T10:15:59.244Z,2.08
2023-02-24T10:21:15.484Z,2.05
2023-02-24T10:26:31.688Z,2.45
2023-02-24T10:31:46.066Z,2.08
2023-02-24T10:36:50.793Z,1.98
2023-02-24T10:41:57.532Z,2.28
2023-02-24T10:47:11.525Z,2.20
2023-02-24T10:52:33.388Z,2.35
2023-02-24T10:57:58.629Z,2.22
2023-02-24T11:03:22.188Z,2.13
2023-02-24T11:08:54.346Z,2.60
2023-02-24T11:14:16.284Z,2.10
2023-02-24T11:19:21.695Z,2.13
2023-02-24T11:24:24.686Z,2.22
2023-02-24T11:29:39.157Z,2.22
2023-02-24T11:34:51.119Z,2.00
2023-02-24T11:39:59.863Z,2.10
2023-02-24T11:45:09.468Z,1.90
2023-02-24T11:50:26.774Z,2.10
2023-02-24T11:55:38.724Z,2.15
2023-02-24T12:00:48.920Z,1.90
2023-02-24T12:05:57.427Z,2.00
2023-02-24T12:11:07.070Z,2.08
2023-02-24T12:16:16.851Z,1.80
2023-02-24T12:21:30.591Z,1.67
2023-02-24T12:26:42.659Z,1.98
2023-02-24T12:31:54.634Z,1.88
2023-02-24T12:37:22.986Z,2.30
2023-02-24T12:42:34.820Z,2.33
2023-02-24T12:47:50.625Z,2.20
2023-02-24T12:53:06.419Z,1.90
2023-02-24T12:58:14.461Z,1.73
2023-02-24T13:03:29.619Z,2.00
2023-02-24T13:08:55.463Z,1.95
2023-02-24T13:14:04.427Z,2.00
2023-02-24T13:19:18.814Z,1.65
2023-02-24T13:24:25.511Z,1.90
2023-02-24T13:29:28.342Z,2.20
2023-02-24T13:34:33.500Z,1.90
2023-02-24T13:39:41.345Z,1.70
2023-02-24T13:44:49.962Z,1.90
2023-02-24T13:50:03.671Z,2.00
2023-02-24T13:55:24.329Z,1.70
2023-02-24T14:00:41.454Z,2.08
2023-02-24T14:05:44.689Z,1.80
2023-02-24T14:10:54.198Z,2.00
2023-02-24T14:15:57.798Z,1.65
2023-02-24T14:21:00.844Z,1.85
2023-02-24T14:26:08.888Z,1.55
2023-02-24T14:31:14.149Z,1.88
2023-02-24T14:36:20.050Z,1.88
2023-02-24T14:41:27.718Z,2.08
2023-02-24T14:46:31.705Z,2.25
2023-02-24T14:51:36.558Z,1.80
2023-02-24T14:56:41.479Z,1.85
2023-02-24T15:01:48.390Z,2.00
2023-02-24T15:06:51.480Z,2.00
2023-02-24T15:11:56.667Z,2.00
2023-02-24T15:17:02.849Z,2.15
2023-02-24T15:22:18.575Z,2.20
2023-02-24T15:27:26.385Z,1.90
2023-02-24T15:32:31.868Z,2.10
2023-02-24T15:37:42.045Z,1.92
2023-02-24T15:42:51.168Z,2.50
2023-02-24T15:47:56.094Z,1.85
2023-02-24T15:53:01.318Z,1.88
2023-02-24T15:58:05.495Z,1.75
2023-02-24T16:03:08.347Z,2.10
2023-02-24T16:08:12.708Z,1.80
2023-02-24T16:13:20.468Z,2.05
2023-02-24T16:18:26.026Z,1.88
2023-02-24T16:23:28.855Z,1.75
2023-02-24T16:28:33.782Z,1.70
2023-02-24T16:33:51.898Z,2.05
2023-02-24T16:38:56.730Z,1.83
2023-02-24T16:44:00.927Z,2.08
2023-02-24T16:49:03.782Z,1.75
2023-02-24T16:54:06.897Z,1.95
2023-02-24T16:59:11.140Z,1.92
2023-02-24T17:04:14.386Z,7.38
2023-02-24T17:09:18.057Z,4.90
2023-02-24T17:14:22.552Z,5.07
2023-02-24T17:19:25.401Z,4.10
2023-02-24T17:24:28.496Z,4.70
2023-02-24T17:29:32.736Z,4.40
2023-02-24T17:34:35.613Z,3.63
2023-02-24T17:39:38.584Z,3.67
2023-02-24T17:44:42.826Z,3.95
2023-02-24T17:49:45.656Z,4.30
2023-02-24T17:54:48.645Z,4.68
2023-02-24T17:59:52.865Z,6.38
2023-02-24T18:04:55.719Z,6.63
2023-02-24T18:09:59.482Z,6.22
2023-02-24T18:15:08.535Z,6.40
2023-02-24T18:20:14.113Z,7.15
2023-02-24T18:25:17.212Z,14.38
2023-02-24T18:30:21.524Z,9.75
2023-02-24T18:35:24.525Z,7.90
2023-02-24T18:40:28.187Z,8.15
2023-02-24T18:45:32.894Z,8.27
2023-02-24T18:50:35.705Z,7.05
2023-02-24T18:55:38.548Z,8.02
2023-02-24T19:00:45.098Z,6.57
2023-02-24T19:05:48.000Z,6.82
2023-02-24T19:10:50.843Z,6.75
2023-02-24T19:15:55.072Z,6.60
2023-02-24T19:20:58.072Z,5.97
2023-02-24T19:26:00.948Z,5.70
2023-02-24T19:31:05.362Z,5.60
2023-02-24T19:36:09.091Z,6.35
2023-02-24T19:41:12.073Z,5.63
2023-02-24T19:46:18.086Z,5.22
2023-02-24T19:51:22.677Z,5.05
2023-02-24T19:56:26.286Z,6.75
2023-02-24T20:01:31.360Z,4.82
2023-02-24T20:06:36.561Z,5.20
2023-02-24T20:11:40.625Z,4.70
2023-02-24T20:16:45.365Z,4.55
2023-02-24T20:21:48.456Z,4.95
2023-02-24T20:26:51.489Z,4.60
2023-02-24T20:31:55.829Z,4.53
2023-02-24T20:36:58.757Z,4.53
2023-02-24T20:42:02.015Z,4.90
2023-02-24T20:47:06.218Z,4.97
2023-02-24T20:52:09.049Z,4.82
2023-02-24T20:57:11.945Z,4.72
2023-02-24T21:02:16.124Z,4.47
2023-02-24T21:07:18.960Z,4.03
2023-02-24T21:12:21.825Z,4.47
2023-02-24T21:17:26.095Z,4.15
2023-02-24T21:22:31.188Z,4.25
2023-02-24T21:27:34.103Z,3.95
2023-02-24T21:32:38.447Z,3.92
2023-02-24T21:37:41.328Z,3.90
2023-02-24T21:42:47.037Z,14.07
2023-02-24T21:47:51.698Z,8.68
2023-02-24T21:52:55.885Z,5.57
2023-02-24T21:57:58.750Z,5.55
2023-02-24T22:03:02.982Z,5.32
2023-02-24T22:08:05.859Z,5.30
2023-02-24T22:13:08.698Z,4.60
2023-02-24T22:18:13.008Z,4.63
2023-02-24T22:23:15.999Z,5.50
2023-02-24T22:28:18.865Z,4.60
2023-02-24T22:33:23.130Z,4.50
2023-02-24T22:38:26.023Z,4.80
2023-02-24T22:43:29.573Z,4.53
2023-02-24T22:48:35.043Z,3.88
2023-02-24T22:53:40.900Z,4.35
2023-02-24T22:58:45.254Z,4.22
2023-02-24T23:03:49.729Z,3.75
2023-02-24T23:08:53.360Z,3.40
2023-02-24T23:13:57.723Z,3.60
2023-02-24T23:19:04.349Z,3.50
2023-02-24T23:24:10.866Z,3.30
2023-02-24T23:29:15.815Z,3.28
2023-02-24T23:34:20.065Z,2.97
2023-02-24T23:39:23.931Z,2.72
2023-02-24T23:44:27.154Z,3.05
2023-02-24T23:49:46.186Z,3.08
2023-02-24T23:54:52.526Z,2.92
2023-02-24T23:59:55.802Z,2.92
